createdAt,value
2018-03-28T05:19:09.392Z,29.63
2018-03-28T05:24:12.025Z,24.03
2018-03-28T05:29:14.649Z,29.80
2018-03-28T05:34:17.289Z,25.87
2018-03-28T05:39:20.668Z,27.60
2018-03-28T05:44:23.317Z,29.97
2018-03-28T05:49:25.970Z,27.23
2018-03-28T05:54:28.650Z,28.03
2018-03-28T05:59:31.250Z,28.87
2018-03-28T06:04:33.889Z,32.83
2018-03-28T06:09:37.281Z,30.57
2018-03-28T06:14:39.945Z,32.73
2018-03-28T06:19:43.380Z,34.83
2018-03-28T06:24:46.009Z,31.20
2018-03-28T06:29:49.417Z,30.57
2018-03-28T06:34:52.028Z,35.40
2018-03-28T06:39:55.419Z,30.50
2018-03-28T06:44:58.039Z,35.67
2018-03-28T06:50:01.421Z,34.83
2018-03-28T06:55:04.061Z,39.07
2018-03-28T07:00:06.690Z,36.37
2018-03-28T07:05:10.074Z,37.73
2018-03-28T07:10:12.698Z,39.47
2018-03-28T07:15:16.101Z,39.13
2018-03-28T07:20:18.736Z,41.53
2018-03-28T07:25:21.355Z,42.77
2018-03-28T07:30:24.763Z,40.23
2018-03-28T07:35:27.390Z,45.23
2018-03-28T07:40:30.070Z,44.23
2018-03-28T07:45:32.668Z,44.17
2018-03-28T07:50:36.080Z,51.13
2018-03-28T07:55:38.708Z,49.63
2018-03-28T08:00:41.349Z,49.43
2018-03-28T08:05:44.010Z,44.53
2018-03-28T08:10:46.644Z,48.53
2018-03-28T08:15:49.286Z,46.80
2018-03-28T08:20:51.901Z,51.87
2018-03-28T08:25:55.290Z,50.03
2018-03-28T08:30:57.909Z,54.90
2018-03-28T08:36:00.550Z,51.23
2018-03-28T08:41:03.198Z,54.97
2018-03-28T08:46:05.830Z,53.73
2018-03-28T08:51:08.466Z,53.67
2018-03-28T08:56:11.081Z,60.60
2018-03-28T09:01:13.727Z,58.67
2018-03-28T09:06:17.120Z,50.50
2018-03-28T09:11:19.774Z,57.33
2018-03-28T09:16:22.398Z,57.03
2018-03-28T09:21:25.029Z,62.73
2018-03-28T09:26:27.670Z,53.83
2018-03-28T09:31:30.305Z,57.90
2018-03-28T09:36:33.689Z,62.93
2018-03-28T09:41:36.322Z,60.40
2018-03-28T09:46:38.957Z,66.53
2018-03-28T09:51:42.353Z,62.77
2018-03-28T09:56:44.996Z,55.70
2018-03-28T10:01:53.434Z,65.60
2018-03-28T10:06:56.054Z,60.93
2018-03-28T10:11:58.680Z,56.33
2018-03-28T10:17:01.318Z,51.33
2018-03-28T10:22:03.937Z,51.57
2018-03-28T10:27:07.337Z,54.73
2018-03-28T10:32:09.962Z,61.77
2018-03-28T10:37:12.595Z,52.73
2018-03-28T10:42:16.000Z,56.47
2018-03-28T10:47:18.623Z,48.10
2018-03-28T10:52:21.240Z,52.93
2018-03-28T10:57:24.629Z,46.63
2018-03-28T11:02:27.270Z,45.60
2018-03-28T11:07:29.887Z,42.93
2018-03-28T11:12:32.541Z,41.40
2018-03-28T11:17:35.161Z,51.30
2018-03-28T11:22:37.806Z,43.00
2018-03-28T11:27:40.445Z,42.87
2018-03-28T11:32:43.082Z,39.53
2018-03-28T11:37:45.742Z,39.40
2018-03-28T11:42:48.361Z,39.23
2018-03-28T11:47:50.997Z,40.20
2018-03-28T11:52:53.648Z,43.97
2018-03-28T11:57:56.280Z,37.23
2018-03-28T12:02:58.911Z,43.07
2018-03-28T12:08:02.314Z,41.53
2018-03-28T12:13:04.963Z,40.20
2018-03-28T12:18:07.585Z,35.87
2018-03-28T12:23:10.217Z,39.83
2018-03-28T12:28:13.614Z,40.43
2018-03-28T12:33:16.248Z,34.80
2018-03-28T12:38:18.865Z,33.10
2018-03-28T12:43:21.496Z,38.90
2018-03-28T12:48:24.116Z,38.30
2018-03-28T12:53:26.782Z,33.60
